Time;durP1;ratioP1;P1;durP2;ratioP2;P2;SDS_P1;SDS_P2;PMS_P1;PMS_P2;Temp;Humidity;BMP_temperature;BMP_pressure;BME280_temperature;BME280_humidity;BME280_pressure;Samples;Min_cycle;Max_cycle;Signal;HPM_P1;HPM_P2
2023/08/22 00:00:55;;;;;;;0.57;0.20;;;17.20;99.90;;;;;;5063904;28;20037;-67
2023/08/22 00:03:21;;;;;;;1.08;0.45;;;17.20;99.90;;;;;;5063524;28;20055;-67
2023/08/22 00:05:47;;;;;;;1.52;0.20;;;17.20;99.90;;;;;;5064409;28;20036;-67
2023/08/22 00:08:12;;;;;;;0.75;0.22;;;17.10;99.90;;;;;;5069282;28;20048;-67
2023/08/22 00:10:38;;;;;;;2.67;0.28;;;17.10;99.90;;;;;;5068538;28;20048;-67
2023/08/22 00:13:04;;;;;;;0.77;0.30;;;17.00;99.90;;;;;;5068549;28;20040;-66
2023/08/22 00:15:30;;;;;;;0.45;0.20;;;17.00;99.90;;;;;;5063337;28;20059;-66
2023/08/22 00:17:56;;;;;;;0.40;0.20;;;17.00;99.90;;;;;;5067074;28;20055;-67
2023/08/22 00:20:23;;;;;;;2.20;0.20;;;17.00;99.90;;;;;;5067359;28;20166;-67
2023/08/22 00:22:49;;;;;;;0.40;0.20;;;17.00;99.90;;;;;;5070951;28;20126;-67
2023/08/22 00:25:15;;;;;;;0.65;0.30;;;17.00;99.90;;;;;;5068322;28;20769;-67
2023/08/22 00:27:40;;;;;;;0.90;0.40;;;17.00;99.90;;;;;;5068284;28;20048;-67
2023/08/22 00:30:07;;;;;;;0.75;0.30;;;17.00;99.90;;;;;;5068617;28;20037;-66
2023/08/22 00:32:33;;;;;;;2.63;0.30;;;17.00;99.90;;;;;;5069561;28;20566;-67
2023/08/22 00:34:59;;;;;;;2.28;0.30;;;17.00;99.90;;;;;;5069313;28;20066;-67
2023/08/22 00:37:26;;;;;;;0.60;0.20;;;16.90;99.90;;;;;;5068141;28;20071;-66
2023/08/22 00:39:52;;;;;;;0.50;0.28;;;16.90;99.90;;;;;;5068526;28;20040;-67
2023/08/22 00:42:18;;;;;;;0.70;0.22;;;16.80;99.90;;;;;;5066682;28;20067;-66
2023/08/22 00:44:44;;;;;;;0.85;0.30;;;16.80;99.90;;;;;;5068494;28;20047;-67
2023/08/22 00:47:10;;;;;;;0.15;0.10;;;16.80;99.90;;;;;;5067660;28;20029;-66
2023/08/22 00:49:36;;;;;;;1.77;0.30;;;16.80;99.90;;;;;;5065769;28;20040;-67
2023/08/22 00:52:03;;;;;;;0.45;0.20;;;16.70;99.90;;;;;;5066060;28;20040;-67
2023/08/22 00:54:30;;;;;;;0.20;0.20;;;16.70;99.90;;;;;;5064107;28;20116;-66
2023/08/22 00:56:57;;;;;;;0.10;0.10;;;16.60;99.90;;;;;;5063642;28;20044;-66
2023/08/22 00:59:26;;;;;;;0.93;0.30;;;16.60;99.90;;;;;;5066104;28;20037;-66
2023/08/22 01:01:51;;;;;;;0.20;0.17;;;16.60;99.90;;;;;;5062846;28;20127;-67
2023/08/22 01:04:19;;;;;;;0.45;0.20;;;16.60;99.90;;;;;;5064578;28;20131;-66
2023/08/22 01:07:05;;;;;;;0.47;0.20;;;16.60;99.90;;;;;;5061515;28;20067;-66
2023/08/22 01:09:56;;;;;;;0.80;0.25;;;16.60;99.90;;;;;;5064158;28;20060;-66
2023/08/22 01:12:33;;;;;;;0.47;0.17;;;16.50;99.90;;;;;;5063011;28;20032;-65
2023/08/22 01:15:09;;;;;;;0.60;0.28;;;16.50;99.90;;;;;;5055043;28;20036;-66
2023/08/22 01:17:36;;;;;;;0.25;0.20;;;16.50;99.90;;;;;;5064309;28;20105;-66
2023/08/22 01:20:04;;;;;;;0.93;0.40;;;16.50;99.90;;;;;;5066198;28;20060;-65
2023/08/22 01:22:30;;;;;;;0.95;0.20;;;16.50;99.90;;;;;;5067123;28;20669;-65
2023/08/22 01:24:56;;;;;;;0.82;0.45;;;16.50;99.90;;;;;;5068482;28;20132;-65
2023/08/22 01:27:27;;;;;;;0.20;0.20;;;16.50;99.90;;;;;;5067445;28;20037;-65
2023/08/22 01:30:05;;;;;;;0.32;0.22;;;16.40;99.90;;;;;;5067211;28;20074;-65
2023/08/22 01:32:34;;;;;;;0.55;0.28;;;16.50;99.90;;;;;;5066319;28;20032;-65
2023/08/22 01:35:02;;;;;;;0.20;0.10;;;16.50;99.90;;;;;;5067059;28;20480;-66
2023/08/22 01:37:31;;;;;;;1.63;0.40;;;16.40;99.90;;;;;;5063675;28;20076;-66
2023/08/22 01:39:58;;;;;;;1.00;0.35;;;16.40;99.90;;;;;;5070059;28;20507;-66
2023/08/22 01:42:25;;;;;;;0.45;0.30;;;16.40;99.90;;;;;;5066319;28;20391;-66
2023/08/22 01:44:51;;;;;;;0.98;0.35;;;16.40;99.90;;;;;;5071998;28;20041;-65
2023/08/22 01:47:16;;;;;;;0.38;0.20;;;16.40;99.90;;;;;;5063649;28;20408;-66
2023/08/22 01:49:42;;;;;;;0.40;0.20;;;16.40;99.90;;;;;;5070839;28;20039;-66
2023/08/22 01:52:08;;;;;;;0.20;0.20;;;16.50;99.90;;;;;;5065747;28;20485;-65
2023/08/22 01:54:38;;;;;;;0.57;0.30;;;16.50;99.90;;;;;;5070484;28;20167;-65
2023/08/22 01:57:04;;;;;;;0.15;0.13;;;16.40;99.90;;;;;;5066897;28;20373;-66
2023/08/22 01:59:30;;;;;;;0.70;0.40;;;16.40;99.90;;;;;;5064429;28;20046;-66
2023/08/22 02:01:55;;;;;;;0.30;0.20;;;16.40;99.90;;;;;;5063333;28;20428;-66
2023/08/22 02:04:21;;;;;;;0.60;0.25;;;16.30;99.90;;;;;;5064599;28;20055;-65
2023/08/22 02:06:47;;;;;;;0.52;0.20;;;16.30;99.90;;;;;;5067632;28;20036;-66
2023/08/22 02:09:13;;;;;;;0.45;0.10;;;16.30;99.90;;;;;;5087415;28;20056;-65
2023/08/22 02:11:39;;;;;;;0.30;0.22;;;16.30;99.90;;;;;;5066131;28;20400;-66
2023/08/22 02:14:05;;;;;;;0.77;0.32;;;16.20;99.90;;;;;;5066820;28;20394;-65
2023/08/22 02:16:31;;;;;;;0.22;0.10;;;16.20;99.90;;;;;;5066669;28;20039;-65
2023/08/22 02:18:56;;;;;;;0.73;0.22;;;16.20;99.90;;;;;;5070439;28;20032;-66
2023/08/22 02:21:22;;;;;;;0.47;0.28;;;16.20;99.90;;;;;;5067599;28;20037;-65
2023/08/22 02:23:48;;;;;;;0.10;0.10;;;16.20;99.90;;;;;;5070575;28;20082;-66
2023/08/22 02:26:14;;;;;;;0.35;0.20;;;16.20;99.90;;;;;;5065765;28;20033;-66
2023/08/22 02:28:39;;;;;;;0.93;0.30;;;16.10;99.90;;;;;;5064851;28;20140;-66
2023/08/22 02:31:05;;;;;;;0.77;0.30;;;16.10;99.90;;;;;;5068196;28;20045;-65
2023/08/22 02:33:31;;;;;;;0.65;0.20;;;16.10;99.90;;;;;;5052876;28;20044;-66
2023/08/22 02:35:57;;;;;;;0.22;0.13;;;16.10;99.90;;;;;;5070107;28;20036;-66
2023/08/22 02:38:22;;;;;;;4.20;0.30;;;16.10;99.90;;;;;;5067089;28;20040;-66
2023/08/22 02:40:48;;;;;;;0.55;0.25;;;16.10;99.90;;;;;;5068143;28;20496;-66
2023/08/22 02:43:14;;;;;;;0.93;0.30;;;16.00;99.90;;;;;;5066602;28;20044;-66
2023/08/22 02:45:39;;;;;;;1.02;0.20;;;16.10;99.90;;;;;;5064888;28;20063;-66
2023/08/22 02:48:06;;;;;;;0.60;0.38;;;16.10;99.90;;;;;;5065570;28;20101;-66
2023/08/22 02:50:31;;;;;;;0.95;0.40;;;16.10;99.90;;;;;;5065253;28;20152;-66
2023/08/22 02:52:58;;;;;;;1.23;0.20;;;16.10;99.90;;;;;;5043419;28;20053;-66
2023/08/22 02:55:24;;;;;;;0.55;0.30;;;16.10;99.90;;;;;;5064482;28;20132;-66
2023/08/22 02:57:49;;;;;;;1.00;0.50;;;16.10;99.90;;;;;;5068417;28;20064;-66
2023/08/22 03:00:15;;;;;;;0.65;0.43;;;16.10;99.90;;;;;;5067070;28;20037;-66
2023/08/22 03:02:41;;;;;;;0.85;0.40;;;16.10;99.90;;;;;;5066304;28;20048;-66
2023/08/22 03:05:11;;;;;;;0.50;0.20;;;16.10;99.90;;;;;;5067132;28;20052;-66
2023/08/22 03:07:37;;;;;;;0.43;0.30;;;16.10;99.90;;;;;;5065621;28;20076;-67
2023/08/22 03:10:03;;;;;;;0.77;0.28;;;16.10;99.90;;;;;;5061439;28;20068;-66
2023/08/22 03:12:28;;;;;;;0.77;0.22;;;16.10;99.90;;;;;;5061280;28;20040;-66
2023/08/22 03:14:54;;;;;;;0.98;0.45;;;16.00;99.90;;;;;;5062438;28;20569;-65
2023/08/22 03:17:20;;;;;;;0.30;0.30;;;16.10;99.90;;;;;;5063023;28;20429;-66
2023/08/22 03:19:45;;;;;;;1.33;0.50;;;16.10;99.90;;;;;;5048423;28;20127;-66
2023/08/22 03:22:11;;;;;;;0.77;0.30;;;16.10;99.90;;;;;;5062065;28;20039;-66
2023/08/22 03:24:37;;;;;;;0.63;0.40;;;16.10;99.90;;;;;;5064826;28;20123;-67
2023/08/22 03:27:03;;;;;;;1.70;0.60;;;16.10;99.90;;;;;;5064357;28;20055;-66
2023/08/22 03:29:28;;;;;;;0.32;0.30;;;16.10;99.90;;;;;;5059444;28;20032;-67
2023/08/22 03:31:55;;;;;;;0.60;0.28;;;16.00;99.90;;;;;;5064362;28;20033;-66
2023/08/22 03:34:21;;;;;;;0.77;0.30;;;16.10;99.90;;;;;;5068055;28;20040;-66
2023/08/22 03:36:47;;;;;;;1.92;0.45;;;16.00;99.90;;;;;;5062328;28;20048;-66
2023/08/22 03:39:12;;;;;;;0.80;0.30;;;16.10;99.90;;;;;;5067147;28;20039;-66
2023/08/22 03:41:38;;;;;;;0.60;0.30;;;16.00;99.90;;;;;;5068538;28;20123;-66
2023/08/22 03:44:04;;;;;;;0.68;0.30;;;16.00;99.90;;;;;;5061301;28;20045;-66
2023/08/22 03:46:29;;;;;;;0.22;0.22;;;16.00;99.90;;;;;;5066076;28;20052;-66
2023/08/22 03:48:55;;;;;;;0.80;0.30;;;15.90;99.90;;;;;;5062468;28;20041;-66
2023/08/22 03:51:21;;;;;;;0.28;0.10;;;15.90;99.90;;;;;;5065463;28;20048;-66
2023/08/22 03:53:46;;;;;;;0.50;0.20;;;15.80;99.90;;;;;;5066823;28;20037;-66
2023/08/22 03:56:12;;;;;;;1.63;0.32;;;15.80;99.90;;;;;;5065272;28;20169;-66
2023/08/22 03:58:38;;;;;;;0.95;0.50;;;15.80;99.90;;;;;;5058624;28;20040;-66
2023/08/22 04:01:04;;;;;;;0.70;0.40;;;15.70;99.90;;;;;;5060922;28;20072;-66
2023/08/22 04:03:30;;;;;;;0.95;0.45;;;15.70;99.90;;;;;;5064866;28;20135;-66
2023/08/22 04:05:58;;;;;;;1.10;0.43;;;15.60;99.90;;;;;;5064584;28;20052;-65
2023/08/22 04:08:24;;;;;;;0.68;0.28;;;15.60;99.90;;;;;;5063880;28;20125;-66
2023/08/22 04:10:51;;;;;;;0.77;0.40;;;15.60;99.90;;;;;;5064031;28;20048;-66
2023/08/22 04:13:17;;;;;;;0.75;0.20;;;15.50;99.90;;;;;;5066916;28;20071;-66
2023/08/22 04:15:43;;;;;;;0.50;0.10;;;15.50;99.90;;;;;;5064189;28;20037;-66
2023/08/22 04:18:08;;;;;;;2.35;0.52;;;15.50;99.90;;;;;;5065141;28;20040;-66
2023/08/22 04:20:34;;;;;;;0.75;0.45;;;15.50;99.90;;;;;;5067942;28;20065;-66
2023/08/22 04:23:00;;;;;;;2.65;0.32;;;15.40;99.90;;;;;;5068881;28;20119;-66
2023/08/22 04:25:26;;;;;;;0.63;0.20;;;15.40;99.90;;;;;;5067358;28;20135;-66
2023/08/22 04:27:52;;;;;;;1.23;0.40;;;15.30;99.90;;;;;;5067084;28;20133;-66
2023/08/22 04:30:18;;;;;;;2.30;0.45;;;15.30;99.90;;;;;;5066628;28;20055;-66
2023/08/22 04:32:44;;;;;;;1.10;0.35;;;15.20;99.90;;;;;;5063643;28;20170;-66
2023/08/22 04:35:10;;;;;;;0.80;0.40;;;15.20;99.90;;;;;;5067140;28;20532;-65
2023/08/22 04:37:35;;;;;;;0.20;0.15;;;15.20;99.90;;;;;;5067533;28;20199;-66
2023/08/22 04:40:03;;;;;;;0.45;0.20;;;15.10;99.90;;;;;;5066857;28;20119;-65
2023/08/22 04:42:29;;;;;;;0.95;0.30;;;15.10;99.90;;;;;;5065366;28;20040;-66
2023/08/22 04:44:55;;;;;;;0.35;0.30;;;15.10;99.90;;;;;;5062524;28;20047;-66
2023/08/22 04:47:21;;;;;;;0.70;0.40;;;15.00;99.90;;;;;;5061607;28;20037;-66
2023/08/22 04:49:47;;;;;;;1.17;0.45;;;15.00;99.90;;;;;;5065196;28;20032;-66
2023/08/22 04:52:12;;;;;;;0.40;0.20;;;15.00;99.90;;;;;;5065787;28;20067;-66
2023/08/22 04:54:38;;;;;;;0.95;0.50;;;14.90;99.90;;;;;;5068125;28;20393;-66
2023/08/22 04:57:04;;;;;;;0.70;0.20;;;15.00;99.90;;;;;;5064996;28;20136;-66
2023/08/22 04:59:30;;;;;;;0.75;0.40;;;14.90;99.90;;;;;;5070215;28;20040;-66
2023/08/22 05:01:55;;;;;;;0.85;0.35;;;14.90;99.90;;;;;;5070271;28;20068;-66
2023/08/22 05:04:21;;;;;;;0.93;0.30;;;14.90;99.90;;;;;;5068427;28;20116;-66
2023/08/22 05:06:47;;;;;;;0.68;0.38;;;15.00;99.90;;;;;;5070076;28;20489;-66
2023/08/22 05:09:16;;;;;;;0.30;0.20;;;14.90;99.90;;;;;;5068358;28;20036;-66
2023/08/22 05:11:42;;;;;;;0.63;0.40;;;15.00;99.90;;;;;;5069207;28;20491;-66
2023/08/22 05:14:09;;;;;;;0.98;0.50;;;15.00;99.90;;;;;;5067720;28;20048;-66
2023/08/22 05:16:35;;;;;;;0.88;0.52;;;15.10;99.90;;;;;;5070236;28;20062;-66
2023/08/22 05:19:01;;;;;;;0.63;0.30;;;15.20;99.90;;;;;;5068673;28;20516;-66
2023/08/22 05:21:26;;;;;;;1.10;0.60;;;15.20;99.90;;;;;;5070418;28;20127;-66
2023/08/22 05:23:52;;;;;;;1.00;0.30;;;15.30;99.90;;;;;;5069519;28;20086;-66
2023/08/22 05:26:18;;;;;;;1.15;0.60;;;15.40;99.90;;;;;;5071325;28;20032;-66
2023/08/22 05:28:44;;;;;;;0.63;0.32;;;15.50;99.90;;;;;;5070818;28;20033;-66
2023/08/22 05:31:24;;;;;;;1.45;0.60;;;15.60;99.90;;;;;;5067233;28;20488;-66
2023/08/22 05:33:50;;;;;;;0.70;0.40;;;15.60;99.90;;;;;;5067073;28;20036;-66
2023/08/22 05:36:16;;;;;;;1.33;0.88;;;15.80;99.90;;;;;;5065110;28;20051;-66
2023/08/22 05:38:42;;;;;;;0.60;0.40;;;15.90;99.90;;;;;;5046599;28;20036;-66
2023/08/22 05:41:08;;;;;;;0.95;0.45;;;16.10;99.90;;;;;;5068803;28;20048;-66
2023/08/22 05:43:45;;;;;;;0.90;0.40;;;16.50;99.90;;;;;;5068004;28;20279;-66
2023/08/22 05:46:11;;;;;;;1.40;0.93;;;16.90;99.90;;;;;;5069072;28;20764;-66
2023/08/22 05:48:36;;;;;;;0.90;0.50;;;17.20;99.90;;;;;;5070661;28;20043;-66
2023/08/22 05:51:02;;;;;;;2.65;0.63;;;17.40;99.90;;;;;;5072117;28;20223;-66
2023/08/22 05:53:28;;;;;;;1.67;0.93;;;17.70;99.90;;;;;;5071717;28;20491;-66
2023/08/22 05:55:55;;;;;;;0.82;0.35;;;18.20;99.90;;;;;;5069661;28;20032;-66
2023/08/22 05:58:21;;;;;;;0.85;0.45;;;18.60;99.90;;;;;;5070059;28;20052;-66
2023/08/22 06:00:47;;;;;;;0.88;0.65;;;18.80;99.90;;;;;;5067785;28;20041;-66
2023/08/22 06:03:13;;;;;;;0.93;0.40;;;18.80;99.90;;;;;;5068927;28;20142;-66
2023/08/22 06:05:40;;;;;;;0.28;0.20;;;18.70;99.90;;;;;;5069545;28;20135;-66
2023/08/22 06:08:05;;;;;;;1.40;0.40;;;18.70;99.90;;;;;;5067631;28;20056;-66
2023/08/22 06:10:31;;;;;;;1.75;0.55;;;18.70;99.90;;;;;;5068657;28;20118;-66
2023/08/22 06:12:57;;;;;;;1.02;0.30;;;18.70;99.90;;;;;;5069742;28;20028;-66
2023/08/22 06:15:23;;;;;;;0.93;0.50;;;18.70;99.90;;;;;;5070155;28;20032;-66
2023/08/22 06:17:48;;;;;;;0.57;0.28;;;18.70;99.90;;;;;;5066828;28;20036;-66
2023/08/22 06:20:15;;;;;;;1.70;0.60;;;18.80;99.90;;;;;;5071437;28;20036;-66
2023/08/22 06:22:40;;;;;;;1.02;0.40;;;18.80;99.90;;;;;;5069108;28;20049;-67
2023/08/22 06:25:07;;;;;;;1.48;0.55;;;18.80;99.90;;;;;;5071958;28;20533;-66
2023/08/22 06:27:33;;;;;;;2.25;0.47;;;18.80;99.90;;;;;;5070976;28;20087;-66
2023/08/22 06:29:59;;;;;;;1.02;0.30;;;18.90;99.90;;;;;;5067052;28;20064;-66
2023/08/22 06:32:25;;;;;;;0.82;0.47;;;18.90;99.90;;;;;;5069140;28;20513;-66
2023/08/22 06:34:50;;;;;;;0.90;0.52;;;18.90;99.90;;;;;;5071577;28;20045;-66
2023/08/22 06:37:16;;;;;;;2.05;0.70;;;19.00;99.90;;;;;;5069606;28;20504;-66
2023/08/22 06:39:42;;;;;;;1.10;0.73;;;18.90;99.90;;;;;;5071486;28;20044;-66
2023/08/22 06:42:07;;;;;;;1.40;0.28;;;18.90;99.90;;;;;;5069711;28;20534;-67
2023/08/22 06:44:33;;;;;;;1.05;0.30;;;19.00;99.90;;;;;;5070098;28;20041;-66
2023/08/22 06:46:59;;;;;;;0.63;0.20;;;19.00;99.90;;;;;;5069362;28;20048;-66
2023/08/22 06:49:25;;;;;;;1.30;0.40;;;19.00;99.90;;;;;;5070504;28;20076;-67
2023/08/22 06:51:50;;;;;;;1.23;0.43;;;18.90;99.90;;;;;;5070718;28;20488;-67
2023/08/22 06:54:16;;;;;;;0.47;0.30;;;19.00;99.90;;;;;;5069049;28;20040;-64
2023/08/22 06:56:42;;;;;;;0.70;0.20;;;19.00;99.90;;;;;;5071431;28;20032;-64
2023/08/22 06:59:07;;;;;;;0.68;0.38;;;19.10;99.90;;;;;;5068717;28;20040;-64
2023/08/22 07:01:33;;;;;;;0.80;0.30;;;19.20;99.90;;;;;;5069016;28;20102;-65
2023/08/22 07:03:59;;;;;;;0.73;0.55;;;19.30;99.90;;;;;;5069451;28;20407;-64
2023/08/22 07:06:24;;;;;;;1.67;0.30;;;19.50;99.90;;;;;;5065611;28;20084;-67
2023/08/22 07:08:51;;;;;;;0.98;0.30;;;19.70;99.90;;;;;;5067799;28;20052;-64
2023/08/22 07:11:17;;;;;;;0.77;0.30;;;19.90;99.90;;;;;;5068168;28;20032;-65
2023/08/22 07:13:42;;;;;;;2.42;0.13;;;20.00;99.90;;;;;;5066295;28;20326;-65
2023/08/22 07:16:08;;;;;;;0.70;0.32;;;20.20;99.90;;;;;;5068752;28;20376;-65
2023/08/22 07:18:34;;;;;;;2.28;0.90;;;20.40;99.90;;;;;;5069276;28;20032;-66
2023/08/22 07:21:04;;;;;;;0.98;0.32;;;20.50;99.90;;;;;;5068172;28;20038;-65
2023/08/22 07:23:29;;;;;;;0.88;0.50;;;20.60;99.90;;;;;;5069354;28;20032;-65
2023/08/22 07:25:55;;;;;;;0.68;0.30;;;20.70;99.90;;;;;;5070025;28;20032;-66
2023/08/22 07:28:21;;;;;;;0.75;0.10;;;20.80;99.90;;;;;;5069259;28;20044;-67
2023/08/22 07:30:47;;;;;;;1.52;0.40;;;21.00;99.90;;;;;;5068387;28;20111;-66
2023/08/22 07:33:14;;;;;;;0.20;0.10;;;21.10;99.90;;;;;;5064964;28;20124;-66
2023/08/22 07:35:41;;;;;;;0.47;0.28;;;21.20;99.90;;;;;;5063686;28;20051;-66
2023/08/22 07:38:06;;;;;;;0.77;0.25;;;21.30;99.90;;;;;;5069252;28;20120;-66
2023/08/22 07:40:36;;;;;;;0.60;0.30;;;21.50;99.90;;;;;;5066830;28;20123;-66
2023/08/22 07:43:02;;;;;;;0.68;0.38;;;21.50;99.90;;;;;;5052271;28;20071;-66
2023/08/22 07:45:27;;;;;;;0.45;0.25;;;21.60;99.90;;;;;;5069553;28;20040;-66
2023/08/22 07:47:53;;;;;;;0.28;0.10;;;21.70;99.90;;;;;;5068499;28;20056;-66
2023/08/22 07:50:19;;;;;;;0.32;0.10;;;21.80;99.90;;;;;;5064283;28;20095;-66
2023/08/22 07:52:45;;;;;;;0.22;0.10;;;21.70;99.90;;;;;;5069498;28;20028;-66
2023/08/22 07:55:11;;;;;;;1.77;0.30;;;21.70;99.90;;;;;;5068964;28;20567;-66
2023/08/22 07:57:36;;;;;;;0.25;0.10;;;21.80;99.90;;;;;;5069198;28;20194;-66
2023/08/22 08:00:07;;;;;;;0.40;0.10;;;21.90;99.90;;;;;;5067770;28;20067;-66
2023/08/22 08:02:33;;;;;;;0.15;0.03;;;21.90;99.90;;;;;;5068214;28;20458;-65
2023/08/22 08:04:59;;;;;;;0.00;0.00;;;22.00;99.90;;;;;;5067477;28;20124;-66
2023/08/22 08:07:25;;;;;;;0.28;0.22;;;22.00;99.90;;;;;;5069194;28;20112;-66
2023/08/22 08:09:50;;;;;;;0.73;0.10;;;22.00;99.90;;;;;;5065280;28;20415;-66
2023/08/22 08:12:16;;;;;;;0.65;0.17;;;22.00;99.90;;;;;;5065557;28;20416;-66
2023/08/22 08:14:42;;;;;;;0.50;0.03;;;22.00;99.90;;;;;;5062318;28;20067;-66
2023/08/22 08:17:08;;;;;;;0.32;0.20;;;22.10;99.90;;;;;;5067507;28;20093;-66
2023/08/22 08:19:33;;;;;;;0.10;0.00;;;22.10;99.90;;;;;;5062081;28;20477;-65
2023/08/22 08:21:59;;;;;;;0.40;0.10;;;22.10;99.90;;;;;;5067147;28;20044;-66
2023/08/22 08:24:25;;;;;;;0.30;0.10;;;22.10;99.90;;;;;;5068431;28;20043;-65
2023/08/22 08:26:51;;;;;;;0.30;0.05;;;22.10;99.90;;;;;;5067175;28;20036;-66
2023/08/22 08:29:18;;;;;;;0.20;0.00;;;22.20;99.90;;;;;;5069153;28;20071;-66
2023/08/22 08:31:43;;;;;;;0.03;0.00;;;22.20;99.90;;;;;;5065582;28;20033;-65
2023/08/22 08:34:09;;;;;;;0.00;0.00;;;22.30;99.90;;;;;;5068218;28;20093;-66
2023/08/22 08:36:35;;;;;;;0.00;0.00;;;22.30;99.90;;;;;;5069151;28;20025;-66
2023/08/22 08:39:00;;;;;;;0.22;0.13;;;22.30;99.90;;;;;;5065917;28;20143;-66
2023/08/22 08:41:29;;;;;;;0.35;0.08;;;22.30;99.90;;;;;;5067315;28;20047;-66
2023/08/22 08:43:56;;;;;;;0.00;0.00;;;22.30;99.90;;;;;;5066564;28;20365;-65
2023/08/22 08:46:25;;;;;;;0.08;0.08;;;22.40;99.90;;;;;;5066344;28;20072;-66
2023/08/22 08:48:52;;;;;;;0.22;0.00;;;22.50;99.90;;;;;;5063506;28;20144;-66
2023/08/22 08:51:18;;;;;;;1.17;0.20;;;22.60;99.90;;;;;;5067713;28;20142;-66
2023/08/22 08:53:45;;;;;;;2.25;0.10;;;22.70;99.90;;;;;;5068884;28;20115;-67
2023/08/22 08:56:11;;;;;;;0.17;0.10;;;22.70;99.90;;;;;;5068747;28;20041;-65
2023/08/22 08:58:38;;;;;;;0.32;0.00;;;22.60;99.90;;;;;;5068203;28;20373;-66
2023/08/22 09:01:07;;;;;;;0.17;0.10;;;22.50;99.90;;;;;;5066455;28;20036;-66
2023/08/22 09:03:33;;;;;;;0.68;0.20;;;22.50;99.90;;;;;;5067487;28;20111;-66
2023/08/22 09:05:58;;;;;;;0.00;0.00;;;22.60;99.90;;;;;;5066032;28;20048;-66
2023/08/22 09:08:24;;;;;;;0.10;0.05;;;22.70;99.90;;;;;;5067626;28;20555;-66
2023/08/22 09:10:51;;;;;;;0.10;0.00;;;22.70;99.90;;;;;;5066275;28;20119;-65
2023/08/22 09:13:25;;;;;;;0.00;0.00;;;22.80;99.90;;;;;;5066156;28;20043;-66
2023/08/22 09:15:56;;;;;;;;;;;22.80;99.90;;;;;;5066642;28;20036;-67
2023/08/22 09:18:22;;;;;;;0.95;0.20;;;22.90;99.90;;;;;;5065463;28;19916;-66
2023/08/22 09:20:48;;;;;;;2.65;0.55;;;22.90;99.90;;;;;;5063544;28;20499;-67
2023/08/22 09:23:27;;;;;;;0.20;0.10;;;23.10;99.90;;;;;;5069365;28;20037;-66
2023/08/22 09:25:54;;;;;;;0.25;0.13;;;23.30;99.90;;;;;;5068268;28;20112;-66
2023/08/22 09:28:20;;;;;;;0.25;0.10;;;23.80;99.90;;;;;;5068073;28;20051;-66
2023/08/22 09:30:50;;;;;;;0.17;0.00;;;24.10;99.90;;;;;;5066122;28;20046;-66
2023/08/22 09:33:16;;;;;;;0.20;0.10;;;24.70;99.90;;;;;;5068847;28;20041;-66
2023/08/22 09:35:42;;;;;;;0.77;0.22;;;25.30;99.90;;;;;;5063883;28;20037;-66
2023/08/22 09:38:12;;;;;;;0.15;0.00;;;25.70;99.90;;;;;;5069879;28;20142;-66
2023/08/22 09:40:58;;;;;;;1.70;0.20;;;26.10;99.90;;;;;;5070931;28;20515;-66
2023/08/22 09:43:28;;;;;;;1.50;0.40;;;26.50;99.90;;;;;;5069642;28;20550;-66
2023/08/22 09:45:54;;;;;;;0.68;0.00;;;26.70;99.90;;;;;;5068757;28;20552;-66
2023/08/22 09:48:24;;;;;;;0.32;0.00;;;26.80;99.90;;;;;;5071734;28;20045;-66
2023/08/22 09:50:55;;;;;;;0.38;0.10;;;26.80;99.90;;;;;;5072105;28;20056;-67
2023/08/22 09:53:22;;;;;;;0.60;0.10;;;26.70;99.90;;;;;;5070386;28;20120;-66
2023/08/22 09:55:51;;;;;;;0.00;0.00;;;26.80;99.90;;;;;;5068660;28;20051;-67
2023/08/22 09:58:18;;;;;;;0.13;0.05;;;26.90;99.90;;;;;;5071024;28;20033;-66
2023/08/22 10:00:45;;;;;;;0.10;0.10;;;27.00;99.90;;;;;;5070322;28;20040;-66
2023/08/22 10:03:12;;;;;;;0.00;0.00;;;27.00;99.90;;;;;;5068015;28;20048;-66
2023/08/22 10:05:39;;;;;;;0.13;0.05;;;27.00;99.90;;;;;;5071462;28;20056;-66
2023/08/22 10:08:05;;;;;;;0.20;0.00;;;27.10;99.90;;;;;;5071274;28;20459;-66
2023/08/22 10:10:32;;;;;;;0.45;0.10;;;27.10;99.90;;;;;;5069996;28;20048;-65
2023/08/22 10:13:00;;;;;;;0.88;0.00;;;27.20;99.90;;;;;;5071733;28;20025;-66
2023/08/22 10:15:26;;;;;;;0.10;0.00;;;27.20;99.90;;;;;;5069442;28;20049;-66
2023/08/22 10:17:52;;;;;;;0.03;0.00;;;26.90;99.90;;;;;;5070798;28;20101;-66
2023/08/22 10:20:17;;;;;;;0.05;0.00;;;26.90;99.90;;;;;;5069407;28;20044;-66
2023/08/22 10:22:43;;;;;;;0.70;0.10;;;27.00;99.90;;;;;;5070923;28;20075;-65
2023/08/22 10:25:09;;;;;;;0.00;0.00;;;27.10;99.90;;;;;;5068291;28;20059;-66
2023/08/22 10:27:42;;;;;;;0.13;0.03;;;27.30;99.90;;;;;;5071656;28;20128;-66
2023/08/22 10:30:13;;;;;;;0.10;0.00;;;27.50;99.90;;;;;;5067678;28;20044;-65
2023/08/22 10:32:59;;;;;;;0.05;0.00;;;27.80;99.90;;;;;;5069472;28;20086;-66
2023/08/22 10:35:25;;;;;;;0.45;0.00;;;27.60;99.90;;;;;;5070725;28;20072;-65
2023/08/22 10:37:53;;;;;;;0.40;0.10;;;27.80;99.90;;;;;;5070667;28;20115;-66
2023/08/22 10:40:31;;;;;;;0.52;0.10;;;27.80;99.90;;;;;;5067845;28;20361;-66
2023/08/22 10:43:11;;;;;;;0.45;0.00;;;27.50;99.90;;;;;;5070116;28;20040;-66
2023/08/22 10:45:41;;;;;;;0.10;0.00;;;27.20;99.90;;;;;;5064890;28;20056;-66
2023/08/22 10:48:13;;;;;;;0.13;0.00;;;27.10;99.90;;;;;;5069034;28;20143;-65
2023/08/22 10:50:43;;;;;;;0.05;0.00;;;27.10;99.90;;;;;;5067114;28;20491;-66
2023/08/22 10:53:27;;;;;;;0.10;0.00;;;27.50;99.90;;;;;;5066924;28;20364;-66
2023/08/22 10:55:54;;;;;;;0.00;0.00;;;27.70;99.90;;;;;;5070731;28;20036;-66
2023/08/22 10:58:37;;;;;;;1.20;0.10;;;27.70;99.90;;;;;;5067331;28;20040;-65
2023/08/22 11:01:15;;;;;;;0.00;0.00;;;27.90;99.90;;;;;;5065033;28;20056;-65
2023/08/22 11:03:42;;;;;;;0.30;0.20;;;28.20;99.90;;;;;;5070193;28;20055;-66
2023/08/22 11:06:13;;;;;;;0.10;0.00;;;28.50;99.90;;;;;;5069852;28;20606;-67
2023/08/22 11:08:41;;;;;;;0.52;0.00;;;28.60;99.90;;;;;;5070764;28;20506;-66
2023/08/22 11:11:08;;;;;;;0.30;0.00;;;28.70;99.90;;;;;;5066787;28;20046;-66
2023/08/22 11:13:36;;;;;;;0.00;0.00;;;28.60;99.90;;;;;;5070384;28;20045;-66
2023/08/22 11:16:02;;;;;;;0.55;0.03;;;28.70;99.90;;;;;;5065724;28;20083;-66
2023/08/22 11:18:28;;;;;;;1.65;0.00;;;28.90;99.90;;;;;;5069702;28;20102;-65
2023/08/22 11:20:58;;;;;;;0.22;0.15;;;29.10;99.90;;;;;;5070133;28;20140;-65
2023/08/22 11:23:24;;;;;;;0.00;0.00;;;29.40;99.90;;;;;;5069186;28;20422;-66
2023/08/22 11:25:49;;;;;;;0.10;0.00;;;29.60;99.90;;;;;;5069538;28;20105;-65
2023/08/22 11:28:15;;;;;;;0.30;0.00;;;29.80;99.90;;;;;;5070091;28;20102;-65
2023/08/22 11:30:41;;;;;;;0.20;0.00;;;30.10;99.90;;;;;;5066284;28;20800;-65
2023/08/22 11:33:06;;;;;;;0.30;0.00;;;30.10;84.40;;;;;;5069655;28;20451;-66
2023/08/22 11:35:32;;;;;;;0.77;0.00;;;30.20;93.40;;;;;;5066095;28;20059;-65
2023/08/22 11:37:58;;;;;;;0.00;0.00;;;30.30;93.20;;;;;;5070362;28;20036;-65
2023/08/22 11:40:26;;;;;;;0.00;0.00;;;30.30;85.70;;;;;;5065191;28;20048;-66
2023/08/22 11:42:51;;;;;;;0.08;0.00;;;30.40;85.40;;;;;;5068676;28;20040;-66
2023/08/22 11:45:21;;;;;;;0.25;0.00;;;30.60;90.20;;;;;;5067287;28;20048;-66
2023/08/22 11:47:52;;;;;;;0.10;0.00;;;30.80;90.70;;;;;;5069467;28;20066;-65
2023/08/22 11:50:22;;;;;;;0.08;0.00;;;31.00;88.20;;;;;;5069544;28;20083;-65
2023/08/22 11:52:49;;;;;;;0.08;0.00;;;31.20;90.80;;;;;;5066851;28;20143;-66
2023/08/22 11:55:17;;;;;;;0.05;0.00;;;31.20;89.40;;;;;;5067336;28;20072;-65
2023/08/22 11:57:43;;;;;;;0.10;0.00;;;31.20;85.90;;;;;;5068035;28;20074;-65
2023/08/22 12:00:14;;;;;;;0.22;0.10;;;31.30;88.10;;;;;;5067831;28;20069;-65
2023/08/22 12:02:50;;;;;;;0.10;0.00;;;31.40;69.20;;;;;;5065683;28;20071;-66
2023/08/22 12:05:34;;;;;;;0.55;0.00;;;31.50;82.50;;;;;;5068241;28;20052;-65
2023/08/22 12:08:14;;;;;;;0.10;0.00;;;31.40;75.10;;;;;;5067229;28;20449;-65
2023/08/22 12:10:46;;;;;;;0.10;0.00;;;31.40;78.90;;;;;;5064143;28;20045;-65
2023/08/22 12:13:13;;;;;;;0.52;0.10;;;31.40;76.90;;;;;;5066904;28;20119;-66
2023/08/22 12:15:40;;;;;;;0.10;0.00;;;31.10;73.30;;;;;;5064906;28;20119;-66
2023/08/22 12:18:07;;;;;;;0.20;0.00;;;30.70;77.00;;;;;;5066805;28;20068;-66
2023/08/22 12:20:34;;;;;;;0.00;0.00;;;30.70;75.40;;;;;;5069041;28;20040;-66
2023/08/22 12:23:01;;;;;;;1.33;0.10;;;30.80;76.20;;;;;;5069715;28;20365;-65
2023/08/22 12:25:27;;;;;;;0.00;0.00;;;30.90;73.00;;;;;;5066175;28;20078;-66
2023/08/22 12:27:53;;;;;;;0.85;0.00;;;31.00;70.90;;;;;;5067054;28;20472;-65
2023/08/22 12:30:19;;;;;;;0.40;0.10;;;31.00;70.80;;;;;;5067917;28;20048;-65
2023/08/22 12:32:45;;;;;;;0.25;0.00;;;31.00;68.90;;;;;;5065626;28;20409;-65
2023/08/22 12:35:11;;;;;;;0.17;0.00;;;31.10;68.80;;;;;;5068959;28;20043;-66
2023/08/22 12:37:38;;;;;;;0.10;0.00;;;31.10;72.10;;;;;;5068364;28;20678;-66
2023/08/22 12:40:10;;;;;;;0.60;0.00;;;31.30;73.00;;;;;;5069357;28;20433;-66
2023/08/22 12:42:36;;;;;;;0.17;0.00;;;31.60;71.80;;;;;;5063598;28;20147;-65
2023/08/22 12:45:03;;;;;;;0.30;0.00;;;31.80;73.80;;;;;;5067743;28;20155;-65
2023/08/22 12:47:28;;;;;;;0.00;0.00;;;32.00;68.70;;;;;;5068151;28;20101;-65